Time;durP1;ratioP1;P1;durP2;ratioP2;P2;SDS_P1;SDS_P2;PMS_P1;PMS_P2;Temp;Humidity;BMP_temperature;BMP_pressure;BME280_temperature;BME280_humidity;BME280_pressure;Samples;Min_cycle;Max_cycle;Signal;HPM_P1;HPM_P2
2022/07/28 00:00:23;;;;;;;;;2.25;1.00;;;;;24.42;33.28;101035.00;2095065;28;47147;-64
2022/07/28 00:01:23;;;;;;;;;3.00;2.00;;;;;24.43;33.32;101038.56;2094777;28;47302;-64
2022/07/28 00:02:24;;;;;;;;;2.50;2.50;;;;;24.42;33.03;101034.13;2121299;27;47640;-64
2022/07/28 00:03:24;;;;;;;;;1.50;1.50;;;;;24.40;33.65;101027.97;2121679;27;47581;-64
2022/07/28 00:04:25;;;;;;;;;1.75;1.75;;;;;24.39;33.34;101028.91;2121302;27;47400;-64
2022/07/28 00:05:25;;;;;;;;;3.00;2.25;;;;;24.40;33.02;101030.69;2112075;27;47908;-63
2022/07/28 00:06:26;;;;;;;;;3.00;3.00;;;;;24.38;33.28;101025.34;2112243;27;47132;-64
2022/07/28 00:07:26;;;;;;;;;1.75;1.75;;;;;24.39;33.22;101031.63;2120890;27;47467;-64
2022/07/28 00:08:27;;;;;;;;;2.00;2.00;;;;;24.39;33.09;101023.50;2112153;27;47516;-62
2022/07/28 00:09:27;;;;;;;;;1.75;1.75;;;;;24.38;33.33;101021.75;2112458;27;47411;-64
2022/07/28 00:10:28;;;;;;;;;3.50;1.50;;;;;24.37;33.31;101023.59;2121378;27;47702;-64
2022/07/28 00:11:28;;;;;;;;;2.00;1.00;;;;;24.35;33.67;101021.00;2121536;27;47343;-63
2022/07/28 00:12:29;;;;;;;;;3.00;2.00;;;;;24.36;33.34;101019.16;2121358;27;47565;-63
2022/07/28 00:13:29;;;;;;;;;1.25;1.25;;;;;24.36;33.58;101019.16;2121318;27;47467;-63
2022/07/28 00:14:30;;;;;;;;;2.75;2.75;;;;;24.36;33.33;101013.75;2121351;27;47989;-63
2022/07/28 00:15:30;;;;;;;;;3.00;3.00;;;;;24.36;33.34;101016.44;2121187;27;48100;-63
2022/07/28 00:16:30;;;;;;;;;1.75;1.75;;;;;24.33;33.27;101014.84;2112950;27;47818;-62
2022/07/28 00:17:31;;;;;;;;;1.75;1.75;;;;;24.33;33.52;101014.84;2122132;27;47376;-62
2022/07/28 00:18:32;;;;;;;;;1.25;1.00;;;;;24.32;33.47;101013.13;2119023;27;47428;-61
2022/07/28 00:19:32;;;;;;;;;3.00;2.40;;;;;24.31;33.19;101011.38;2115283;27;47790;-63
2022/07/28 00:20:33;;;;;;;;;2.50;2.50;;;;;24.30;33.47;101017.78;2123249;27;47910;-62
2022/07/28 00:21:33;;;;;;;;;1.75;1.75;;;;;24.29;33.33;101017.88;2121465;27;47271;-61
2022/07/28 00:22:39;;;;;;;;;1.25;1.25;;;;;24.29;33.54;101012.44;2116411;27;47327;-62
2022/07/28 00:23:39;;;;;;;;;0.60;0.60;;;;;24.27;33.54;101012.56;2121144;27;48147;-64
2022/07/28 00:24:40;;;;;;;;;1.00;1.00;;;;;24.26;33.57;101010.81;2103876;28;47078;-64
2022/07/28 00:25:40;;;;;;;;;1.50;1.50;;;;;24.26;33.63;101010.81;2107009;27;47496;-63
2022/07/28 00:26:41;;;;;;;;;2.25;1.00;;;;;24.25;33.36;101009.06;2113231;27;47948;-63
2022/07/28 00:27:41;;;;;;;;;1.00;1.00;;;;;24.26;33.42;101004.50;2121316;27;47646;-62
2022/07/28 00:28:42;;;;;;;;;2.00;1.75;;;;;24.26;33.77;101008.09;2112093;27;47231;-62
2022/07/28 00:29:42;;;;;;;;;1.50;1.00;;;;;24.26;33.69;101007.22;2112226;27;47623;-63
2022/07/28 00:30:42;;;;;;;;;1.50;1.50;;;;;24.26;33.51;101002.66;2116725;27;47357;-63
2022/07/28 00:31:43;;;;;;;;;1.00;1.00;;;;;24.26;33.62;101005.38;2120191;27;47349;-64
2022/07/28 00:32:43;;;;;;;;;1.25;1.25;;;;;24.26;33.41;101009.94;2121561;27;45662;-64
2022/07/28 00:33:44;;;;;;;;;1.00;1.00;;;;;24.26;33.32;101007.22;2121467;27;47380;-63
2022/07/28 00:34:44;;;;;;;;;0.50;0.50;;;;;24.24;33.68;101006.47;2121582;27;47511;-64
2022/07/28 00:35:44;;;;;;;;;1.50;1.50;;;;;24.25;33.62;101003.66;2113177;27;47259;-62
2022/07/28 00:36:45;;;;;;;;;3.00;1.75;;;;;24.25;33.63;100998.22;2114761;27;47600;-62
2022/07/28 00:37:45;;;;;;;;;1.00;1.00;;;;;24.23;33.63;100997.47;2112756;27;47531;-64
2022/07/28 00:38:45;;;;;;;;;1.00;1.00;;;;;24.24;33.56;100991.06;2115241;27;47201;-62
2022/07/28 00:39:46;;;;;;;;;2.25;2.25;;;;;24.23;33.59;100988.47;2116117;27;47890;-63
2022/07/28 00:42:05;;;;;;;;;1.60;1.60;;;;;24.22;33.56;100987.63;2121550;27;48502;-63
2022/07/28 00:43:06;;;;;;;;;1.00;1.00;;;;;24.21;33.60;100980.47;2095092;28;46504;-62
2022/07/28 00:44:06;;;;;;;;;2.00;1.00;;;;;24.20;33.62;100988.72;2095263;28;48116;-61
2022/07/28 00:45:07;;;;;;;;;1.75;1.75;;;;;24.20;33.58;100986.00;2095075;28;47429;-62
2022/07/28 00:46:08;;;;;;;;;0.25;0.25;;;;;24.19;33.88;100978.84;2095492;28;47477;-65
2022/07/28 00:47:10;;;;;;;;;1.80;1.80;;;;;24.18;33.80;100980.69;2095347;28;47886;-62
2022/07/28 00:48:11;;;;;;;;;1.60;1.60;;;;;24.18;33.81;100983.41;2086664;28;45909;-62
2022/07/28 00:49:14;;;;;;;;;1.50;1.50;;;;;24.17;33.81;100986.25;2085952;28;47310;-62
2022/07/28 00:50:14;;;;;;;;;1.00;1.00;;;;;24.16;33.57;100979.94;2094829;28;47134;-62
2022/07/28 00:51:17;;;;;;;;;2.00;2.00;;;;;24.13;33.64;100982.00;2095004;28;47310;-63
2022/07/28 00:52:18;;;;;;;;;1.00;1.00;;;;;24.12;33.71;100982.97;2094545;28;47775;-63
2022/07/28 00:53:19;;;;;;;;;1.50;1.50;;;;;24.10;33.59;100977.69;2094560;28;46579;-63
2022/07/28 00:54:19;;;;;;;;;1.50;1.50;;;;;24.09;33.72;100978.66;2087784;28;47574;-62
2022/07/28 00:55:22;;;;;;;;;2.00;2.00;;;;;24.09;33.56;100986.78;2079291;28;46915;-62
2022/07/28 00:56:23;;;;;;;;;1.60;1.60;;;;;24.08;33.71;100979.66;2087733;28;48509;-62
2022/07/28 00:57:23;;;;;;;;;1.00;1.00;;;;;24.07;33.59;100977.91;2090747;28;47123;-62
2022/07/28 00:58:26;;;;;;;;;2.00;2.00;;;;;24.06;33.70;100977.06;2100172;28;47690;-62
2022/07/28 00:59:26;;;;;;;;;2.20;2.00;;;;;24.07;33.59;100977.91;2096206;28;47743;-62
2022/07/28 01:00:27;;;;;;;;;1.50;1.50;;;;;24.05;33.67;100978.03;2096496;28;47347;-64
2022/07/28 01:01:27;;;;;;;;;1.00;1.00;;;;;24.05;33.88;100977.16;2101263;28;47122;-64
2022/07/28 01:02:28;;;;;;;;;1.50;1.00;;;;;24.05;33.85;100977.16;2095767;28;47569;-63
2022/07/28 01:03:30;;;;;;;;;2.75;1.75;;;;;24.05;33.96;100971.75;2096050;28;47751;-63
2022/07/28 01:04:30;;;;;;;;;0.20;0.20;;;;;24.03;33.96;100969.16;2096342;28;48190;-63
2022/07/28 01:05:44;;;;;;;;;1.50;1.50;;;;;24.03;34.00;100971.88;2096008;28;47627;-64
2022/07/28 01:07:09;;;;;;;;;1.00;1.00;;;;;24.02;34.05;100971.97;2096018;28;47423;-63
2022/07/28 01:08:17;;;;;;;;;3.00;2.40;;;;;24.01;34.24;100973.81;2096022;28;47959;-63
2022/07/28 01:09:29;;;;;;;;;1.00;1.00;;;;;24.00;34.06;100968.50;2087895;28;47769;-63
2022/07/28 01:10:48;;;;;;;;;1.20;1.20;;;;;23.98;34.06;100960.47;2089460;28;48182;-63
2022/07/28 01:12:07;;;;;;;;;2.00;2.00;;;;;23.98;34.02;100959.59;2090354;28;47854;-63
2022/07/28 01:13:45;;;;;;;;;1.00;1.00;;;;;23.96;33.98;100956.16;2098758;28;47815;-62
2022/07/28 01:14:54;;;;;;;;;2.40;2.40;;;;;23.95;33.98;100960.72;2104776;27;48123;-63
2022/07/28 01:15:58;;;;;;;;;1.00;1.00;;;;;23.95;34.13;100967.97;2107360;27;47620;-62
2022/07/28 01:17:10;;;;;;;;;0.60;0.60;;;;;23.94;33.90;100956.25;2111837;27;47496;-64
2022/07/28 01:18:20;;;;;;;;;1.00;1.00;;;;;23.93;34.16;100962.66;2115215;27;48520;-64
2022/07/28 01:19:39;;;;;;;;;2.60;0.00;;;;;23.93;34.09;100959.09;2117741;27;47957;-64
2022/07/28 01:20:47;;;;;;;;;2.60;2.60;;;;;23.91;33.99;100952.94;2120576;27;47488;-64
2022/07/28 01:21:50;;;;;;;;;0.25;0.25;;;;;23.89;34.17;100952.19;2119790;27;47444;-64
2022/07/28 01:23:05;;;;;;;;;0.25;0.00;;;;;23.86;34.07;100955.94;2120705;27;47712;-64
2022/07/28 01:24:18;;;;;;;;;3.00;2.00;;;;;23.84;34.09;100954.34;2121804;27;47814;-64
2022/07/28 01:25:46;;;;;;;;;2.40;2.40;;;;;23.82;34.19;100959.88;2118261;27;47992;-64
2022/07/28 01:26:57;;;;;;;;;1.40;1.40;;;;;23.82;34.28;100948.16;2122567;27;47546;-64
2022/07/28 01:28:23;;;;;;;;;1.00;1.00;;;;;23.80;34.31;100947.41;2112230;27;47573;-64
2022/07/28 01:29:33;;;;;;;;;2.00;2.00;;;;;23.77;34.09;100949.38;2117027;27;47566;-64
2022/07/28 01:30:40;;;;;;;;;0.75;0.75;;;;;23.77;34.36;100952.09;2119267;27;47458;-64
2022/07/28 01:31:43;;;;;;;;;0.00;0.00;;;;;23.74;34.09;100949.59;2099561;28;47947;-62
2022/07/28 01:32:53;;;;;;;;;1.00;1.00;;;;;23.73;34.38;100952.41;2095951;27;47659;-63
2022/07/28 01:34:17;;;;;;;;;0.60;0.60;;;;;23.72;34.32;100954.25;2120988;27;47530;-64
2022/07/28 01:35:22;;;;;;;;;1.00;1.00;;;;;23.72;34.33;100950.69;2122420;27;47237;-64
2022/07/28 01:36:37;;;;;;;;;1.00;1.00;;;;;23.70;34.22;100952.63;2123104;27;47420;-63
2022/07/28 01:37:44;;;;;;;;;2.00;1.80;;;;;23.70;34.36;100948.09;2113775;27;47852;-63
2022/07/28 01:38:47;;;;;;;;;0.60;0.60;;;;;23.68;34.55;100947.34;2120983;27;47548;-63
2022/07/28 01:39:51;;;;;;;;;1.60;1.00;;;;;23.67;34.46;100951.03;2122217;27;47796;-64
2022/07/28 01:40:55;;;;;;;;;0.25;0.25;;;;;23.66;34.47;100954.72;2103987;28;47728;-64
2022/07/28 01:41:57;;;;;;;;;0.25;0.25;;;;;23.64;34.68;100948.53;2100899;27;47940;-62
2022/07/28 01:43:00;;;;;;;;;1.60;1.60;;;;;23.64;34.38;100948.53;2116911;27;47478;-63
2022/07/28 01:44:05;;;;;;;;;2.75;1.75;;;;;23.63;34.39;100946.81;2114226;27;47873;-62
2022/07/28 01:45:07;;;;;;;;;1.00;1.00;;;;;23.63;34.66;100938.69;2101472;28;47893;-63
2022/07/28 01:46:09;;;;;;;;;1.00;1.00;;;;;23.62;34.44;100942.34;2104618;27;47856;-62
2022/07/28 01:47:11;;;;;;;;;2.40;2.40;;;;;23.61;34.70;100942.47;2122180;27;48162;-63
2022/07/28 01:48:15;;;;;;;;;0.50;0.50;;;;;23.60;34.49;100941.59;2119011;27;47652;-63
2022/07/28 01:49:18;;;;;;;;;1.00;1.00;;;;;23.60;34.50;100943.44;2114470;27;48119;-63
2022/07/28 01:50:21;;;;;;;;;3.25;2.25;;;;;23.60;34.42;100946.16;2115714;27;47457;-63
2022/07/28 01:51:25;;;;;;;;;2.25;1.25;;;;;23.60;34.64;100943.44;2117905;27;47697;-63
2022/07/28 01:52:27;;;;;;;;;1.00;1.00;;;;;23.58;34.66;100943.56;2113717;27;47688;-63
2022/07/28 01:53:31;;;;;;;;;2.00;2.00;;;;;23.56;34.32;100941.91;2114772;27;47855;-62
2022/07/28 01:54:36;;;;;;;;;1.00;1.00;;;;;23.55;34.72;100940.19;2113559;27;47500;-63
2022/07/28 01:55:37;;;;;;;;;2.00;2.00;;;;;23.54;34.37;100942.03;2122313;27;47778;-63
2022/07/28 01:56:40;;;;;;;;;0.75;0.75;;;;;23.53;34.50;100937.59;2122036;27;47663;-63
2022/07/28 01:57:42;;;;;;;;;1.80;1.00;;;;;23.54;34.93;100938.44;2122301;27;47334;-62
2022/07/28 01:58:43;;;;;;;;;0.20;0.20;;;;;23.52;34.61;100937.69;2113881;27;47495;-62
2022/07/28 01:59:45;;;;;;;;;1.40;1.40;;;;;23.51;34.67;100936.84;2117025;27;47480;-63
2022/07/28 02:00:48;;;;;;;;;2.80;1.00;;;;;23.51;34.94;100935.97;2107084;27;47513;-63
2022/07/28 02:01:51;;;;;;;;;1.00;1.00;;;;;23.51;34.82;100939.53;2104774;27;47742;-63
2022/07/28 02:02:52;;;;;;;;;1.20;1.20;;;;;23.51;34.90;100933.25;2120039;27;47582;-63
2022/07/28 02:03:55;;;;;;;;;1.00;1.00;;;;;23.51;34.98;100936.84;2122062;27;47189;-63
2022/07/28 02:04:57;;;;;;;;;2.80;2.00;;;;;23.50;34.56;100937.78;2122018;27;47782;-63
2022/07/28 02:06:01;;;;;;;;;1.00;1.00;;;;;23.47;34.77;100933.47;2121953;27;47431;-63
2022/07/28 02:07:03;;;;;;;;;0.00;0.00;;;;;23.48;34.92;100934.31;2122508;27;48073;-63
2022/07/28 02:08:06;;;;;;;;;1.40;1.40;;;;;23.46;34.48;100939.00;2115106;27;48153;-63
2022/07/28 02:09:07;;;;;;;;;2.80;2.80;;;;;23.43;34.78;100933.81;2117159;27;47264;-64
2022/07/28 02:10:10;;;;;;;;;3.40;2.00;;;;;23.43;34.69;100934.66;2103978;28;47592;-63
2022/07/28 02:12:32;;;;;;;;;1.60;1.60;;;;;23.42;35.05;100938.34;2122185;27;47502;-63
2022/07/28 02:13:34;;;;;;;;;0.80;0.80;;;;;23.44;35.35;100935.53;2122017;27;47272;-63
2022/07/28 02:14:37;;;;;;;;;2.20;2.20;;;;;23.45;34.83;100935.41;2112803;27;47688;-63
2022/07/28 02:15:39;;;;;;;;;2.00;1.00;;;;;23.45;34.93;100935.41;2114361;27;47289;-64
2022/07/28 02:16:45;;;;;;;;;1.40;1.40;;;;;23.46;35.18;100936.28;2113559;27;47818;-64
2022/07/28 02:17:47;;;;;;;;;1.40;1.40;;;;;23.47;34.83;100938.00;2112765;27;47229;-62
2022/07/28 02:18:49;;;;;;;;;0.60;0.60;;;;;23.46;34.96;100928.16;2112818;27;47560;-63
2022/07/28 02:19:51;;;;;;;;;0.60;0.60;;;;;23.45;34.89;100926.41;2122392;27;47449;-63
2022/07/28 02:20:52;;;;;;;;;0.00;0.00;;;;;23.43;34.93;100926.53;2122026;27;48036;-63
2022/07/28 02:21:53;;;;;;;;;0.00;0.00;;;;;23.43;35.04;100928.38;2122431;27;47847;-63
2022/07/28 02:22:55;;;;;;;;;0.60;0.60;;;;;23.44;35.13;100924.69;2122122;27;47785;-62
2022/07/28 02:23:57;;;;;;;;;2.80;2.80;;;;;23.44;35.05;100927.41;2125549;27;47265;-63
2022/07/28 02:24:58;;;;;;;;;1.80;1.00;;;;;23.44;34.94;100921.97;2129116;27;47277;-64
2022/07/28 02:26:02;;;;;;;;;0.25;0.25;;;;;23.44;34.92;100919.28;2115363;27;47552;-63
2022/07/28 02:27:24;;;;;;;;;3.00;1.00;;;;;23.44;35.01;100930.13;2118213;27;48045;-63
2022/07/28 02:28:26;;;;;;;;;1.20;1.20;;;;;23.44;35.17;100921.97;2112971;27;48035;-63
2022/07/28 02:29:32;;;;;;;;;2.60;0.80;;;;;23.42;34.97;100913.97;2112820;27;47597;-63
2022/07/28 02:30:56;;;;;;;;;1.00;1.00;;;;;23.40;34.67;100910.50;2117861;27;47337;-64
2022/07/28 02:32:05;;;;;;;;;1.20;1.20;;;;;23.40;35.02;100915.94;2122018;27;47932;-63
2022/07/28 02:33:13;;;;;;;;;0.60;0.60;;;;;23.40;34.78;100913.22;2122180;27;47185;-63
2022/07/28 02:34:15;;;;;;;;;1.00;1.00;;;;;23.41;35.14;100912.25;2121989;27;47138;-62
2022/07/28 02:35:25;;;;;;;;;2.20;2.20;;;;;23.42;35.13;100915.81;2122155;27;46301;-63
2022/07/28 02:36:33;;;;;;;;;1.20;1.20;;;;;23.41;35.09;100917.66;2122171;27;48273;-62
2022/07/28 02:37:38;;;;;;;;;2.20;1.80;;;;;23.41;35.04;100914.94;2122060;27;47432;-63
2022/07/28 02:38:44;;;;;;;;;1.00;1.00;;;;;23.42;35.13;100918.53;2121554;27;47795;-63
2022/07/28 02:39:50;;;;;;;;;1.40;1.40;;;;;23.42;35.08;100923.94;2121783;27;47484;-63
2022/07/28 02:40:58;;;;;;;;;1.00;1.00;;;;;23.42;35.01;100918.53;2118978;27;48296;-62
2022/07/28 02:42:05;;;;;;;;;1.00;1.00;;;;;23.40;35.00;100915.06;2121077;27;47842;-63
2022/07/28 02:43:11;;;;;;;;;1.60;1.60;;;;;23.39;35.04;100913.34;2122207;27;47497;-63
2022/07/28 02:44:17;;;;;;;;;1.20;1.20;;;;;23.38;35.03;100919.72;2121860;27;47928;-63
2022/07/28 02:45:21;;;;;;;;;1.00;1.00;;;;;23.36;35.16;100902.69;2130106;27;47744;-63
2022/07/28 02:46:25;;;;;;;;;2.20;2.00;;;;;23.36;34.81;100914.41;2128834;27;47536;-63
2022/07/28 02:47:30;;;;;;;;;2.00;2.00;;;;;23.37;35.01;100901.72;2131021;27;47550;-62
2022/07/28 02:48:35;;;;;;;;;1.60;1.60;;;;;23.37;35.48;100905.28;2122000;27;47631;-62
2022/07/28 02:49:37;;;;;;;;;0.40;0.40;;;;;23.38;34.85;100911.59;2115717;27;47829;-63
2022/07/28 02:50:40;;;;;;;;;0.60;0.60;;;;;23.36;34.89;100908.13;2105374;27;47502;-62
2022/07/28 02:51:44;;;;;;;;;1.00;1.00;;;;;23.36;34.88;100910.81;2112651;27;48391;-63
2022/07/28 02:52:46;;;;;;;;;1.60;1.60;;;;;23.36;35.22;100908.13;2113713;27;47818;-63
2022/07/28 02:53:48;;;;;;;;;3.00;1.80;;;;;23.36;35.35;100906.28;2113465;27;47737;-63
2022/07/28 02:54:51;;;;;;;;;1.40;1.40;;;;;23.35;35.00;100904.53;2109052;27;47679;-63
2022/07/28 02:55:52;;;;;;;;;1.00;1.00;;;;;23.35;35.45;100906.38;2104608;27;47622;-62
2022/07/28 02:56:56;;;;;;;;;2.60;2.00;;;;;23.35;34.80;100911.81;2112975;27;48044;-63
2022/07/28 02:57:58;;;;;;;;;2.40;2.40;;;;;23.35;35.32;100906.38;2115360;27;47863;-62
2022/07/28 02:59:00;;;;;;;;;1.40;1.40;;;;;23.34;35.12;100907.38;2107556;27;47145;-63
2022/07/28 03:00:01;;;;;;;;;1.00;1.00;;;;;23.33;34.98;100914.63;2111192;27;48072;-62
2022/07/28 03:01:02;;;;;;;;;1.00;1.00;;;;;23.33;35.39;100908.34;2114780;27;47772;-63
2022/07/28 03:02:03;;;;;;;;;1.00;1.00;;;;;23.33;35.08;100902.94;2112495;27;47695;-63
2022/07/28 03:03:04;;;;;;;;;1.60;1.40;;;;;23.32;35.45;100903.91;2109043;27;47547;-63
2022/07/28 03:04:05;;;;;;;;;2.00;1.00;;;;;23.31;35.34;100904.88;2113222;27;47521;-63
2022/07/28 03:05:07;;;;;;;;;0.00;0.00;;;;;23.31;35.29;100907.59;2113167;27;47969;-63
2022/07/28 03:06:08;;;;;;;;;2.20;2.20;;;;;23.29;35.45;100907.72;2094630;28;47529;-62
2022/07/28 03:07:09;;;;;;;;;3.00;3.00;;;;;23.30;35.40;100905.88;2095546;27;47295;-63
2022/07/28 03:08:10;;;;;;;;;0.20;0.20;;;;;23.29;35.45;100905.00;2112954;27;47790;-62
2022/07/28 03:09:11;;;;;;;;;1.20;1.20;;;;;23.29;35.54;100905.00;2113160;27;47418;-62
2022/07/28 03:10:17;;;;;;;;;2.75;2.75;;;;;23.30;35.28;100906.72;2113438;27;47411;-65
2022/07/28 03:11:17;;;;;;;;;1.00;1.00;;;;;23.29;35.41;100910.41;2113360;27;47530;-63
2022/07/28 03:12:18;;;;;;;;;1.75;1.75;;;;;23.29;35.47;100904.13;2117801;27;47695;-62
2022/07/28 03:13:18;;;;;;;;;2.00;2.00;;;;;23.28;35.43;100911.41;2103183;28;46687;-62
2022/07/28 03:14:18;;;;;;;;;1.00;1.00;;;;;23.27;35.57;100900.69;2106968;27;47365;-65
2022/07/28 03:15:19;;;;;;;;;1.75;1.75;;;;;23.26;35.49;100901.66;2115869;27;47751;-64
2022/07/28 03:16:19;;;;;;;;;1.00;1.00;;;;;23.26;35.61;100902.53;2113224;27;47377;-64
2022/07/28 03:17:20;;;;;;;;;3.00;3.00;;;;;23.27;35.34;100904.25;2113413;27;47395;-64
2022/07/28 03:18:20;;;;;;;;;1.50;1.50;;;;;23.27;35.54;100901.53;2112454;27;47711;-63
2022/07/28 03:19:21;;;;;;;;;3.00;3.00;;;;;23.27;35.43;100900.69;2112843;27;47354;-62
2022/07/28 03:20:21;;;;;;;;;2.00;1.75;;;;;23.27;35.29;100915.09;2113332;27;47502;-62
2022/07/28 03:21:21;;;;;;;;;2.50;2.50;;;;;23.27;35.43;100906.97;2113145;27;47959;-62
2022/07/28 03:22:22;;;;;;;;;3.00;3.00;;;;;23.26;35.51;100907.94;2113007;27;47625;-62
2022/07/28 03:23:28;;;;;;;;;2.00;2.00;;;;;23.28;35.68;100910.53;2113365;27;48576;-62
2022/07/28 03:24:34;;;;;;;;;3.20;3.20;;;;;23.27;35.70;100911.50;2112560;27;47401;-65
2022/07/28 03:25:45;;;;;;;;;2.00;2.00;;;;;23.26;35.62;100910.66;2112960;27;48233;-63
2022/07/28 03:26:54;;;;;;;;;5.00;4.80;;;;;23.27;35.84;100914.22;2112989;27;47878;-64
2022/07/28 03:27:57;;;;;;;;;3.60;2.80;;;;;23.26;35.82;100918.78;2104781;27;47574;-64
2022/07/28 03:28:59;;;;;;;;;3.40;3.40;;;;;23.27;35.68;100915.09;2108064;27;47561;-63
2022/07/28 03:30:11;;;;;;;;;3.80;2.40;;;;;23.27;35.63;100912.38;2105389;27;47571;-63
2022/07/28 03:31:14;;;;;;;;;4.20;4.20;;;;;23.27;35.42;100909.66;2111943;27;46426;-64
2022/07/28 03:32:19;;;;;;;;;3.60;3.60;;;;;23.27;35.49;100914.22;2116804;27;47279;-64
2022/07/28 03:33:19;;;;;;;;;4.00;3.80;;;;;23.26;35.71;100912.50;2112589;27;47814;-64
2022/07/28 03:34:20;;;;;;;;;4.25;3.75;;;;;23.25;35.83;100906.22;2113228;27;47764;-64
2022/07/28 03:35:21;;;;;;;;;2.75;2.75;;;;;23.25;35.82;100913.44;2113013;27;47948;-62
2022/07/28 03:36:28;;;;;;;;;3.40;3.40;;;;;23.24;35.84;100909.84;2112635;27;47145;-63
2022/07/28 03:37:37;;;;;;;;;4.20;4.20;;;;;23.24;35.82;100907.16;2106226;27;47748;-63
2022/07/28 03:38:44;;;;;;;;;3.20;3.20;;;;;23.25;35.91;100910.72;2110726;27;48079;-64
2022/07/28 03:39:50;;;;;;;;;3.20;3.20;;;;;23.26;36.10;100909.78;2112802;27;47693;-63
2022/07/28 03:40:53;;;;;;;;;2.80;2.80;;;;;23.25;35.72;100908.03;2111260;27;47557;-64
2022/07/28 03:41:57;;;;;;;;;2.40;2.40;;;;;23.25;35.73;100908.03;2112249;27;47722;-64
2022/07/28 03:43:06;;;;;;;;;3.00;3.00;;;;;23.24;35.78;100907.16;2112674;27;47811;-64
2022/07/28 03:44:09;;;;;;;;;2.00;2.00;;;;;23.22;35.90;100903.69;2111172;27;47598;-64
2022/07/28 03:45:09;;;;;;;;;2.40;2.40;;;;;23.22;36.08;100909.13;2111332;27;47418;-63
2022/07/28 03:46:11;;;;;;;;;3.25;3.25;;;;;23.22;35.65;100908.25;2107044;27;47604;-64
2022/07/28 03:47:13;;;;;;;;;2.80;2.80;;;;;23.22;35.91;100900.13;2108509;27;47721;-64
2022/07/28 03:48:14;;;;;;;;;2.80;2.80;;;;;23.20;35.55;100903.81;2094791;28;47686;-64
2022/07/28 03:49:14;;;;;;;;;2.20;2.20;;;;;23.19;35.78;100904.78;2077990;28;47934;-64
2022/07/28 03:50:14;;;;;;;;;3.00;3.00;;;;;23.20;35.63;100908.34;2099759;28;47485;-64
2022/07/28 03:51:15;;;;;;;;;2.75;2.75;;;;;23.19;35.89;100902.09;2113047;27;47683;-63
2022/07/28 03:52:17;;;;;;;;;4.25;4.25;;;;;23.20;35.93;100900.25;2112995;27;47126;-64
2022/07/28 03:53:24;;;;;;;;;3.00;3.00;;;;;23.20;35.89;100908.34;2113480;27;47402;-64
2022/07/28 03:54:24;;;;;;;;;3.20;3.20;;;;;23.19;35.99;100903.91;2104873;27;47480;-63
2022/07/28 03:55:25;;;;;;;;;4.25;4.25;;;;;23.19;35.97;100903.91;2095806;28;47359;-64
2022/07/28 03:56:26;;;;;;;;;5.40;4.00;;;;;23.19;36.09;100902.09;2111174;27;47472;-63
2022/07/28 03:57:26;;;;;;;;;5.25;5.25;;;;;23.19;35.96;100902.09;2107333;27;47406;-64
2022/07/28 03:58:27;;;;;;;;;6.00;4.00;;;;;23.18;35.68;100900.34;2114338;27;47952;-61
2022/07/28 03:59:27;;;;;;;;;4.00;4.00;;;;;23.19;35.86;100903.91;2112711;27;47244;-62
2022/07/28 04:00:28;;;;;;;;;6.25;5.00;;;;;23.18;36.13;100907.59;2112903;27;47511;-62
2022/07/28 04:01:29;;;;;;;;;4.80;4.40;;;;;23.17;35.61;100906.75;2113069;27;47920;-64
2022/07/28 04:02:29;;;;;;;;;4.25;4.25;;;;;23.16;35.91;100901.44;2112624;27;47543;-64
2022/07/28 04:03:29;;;;;;;;;5.25;5.25;;;;;23.15;35.95;100913.25;2113056;27;46780;-63
2022/07/28 04:04:30;;;;;;;;;4.75;4.50;;;;;23.12;35.81;100908.94;2108652;27;47083;-62
2022/07/28 04:05:30;;;;;;;;;5.00;5.00;;;;;23.11;35.70;100912.56;2106940;27;47374;-63
2022/07/28 04:06:31;;;;;;;;;4.00;3.00;;;;;23.10;36.28;100907.28;2108126;27;47773;-63
2022/07/28 04:07:31;;;;;;;;;4.50;4.50;;;;;23.09;36.30;100909.13;2117942;27;47882;-62
2022/07/28 04:08:32;;;;;;;;;4.00;3.75;;;;;23.06;36.00;100906.63;2111739;27;47281;-63
2022/07/28 04:09:33;;;;;;;;;5.20;5.00;;;;;23.04;35.93;100908.59;2111545;27;47469;-63
2022/07/28 04:10:33;;;;;;;;;5.25;5.25;;;;;23.03;36.32;100904.16;2100803;27;47727;-62
2022/07/28 04:11:33;;;;;;;;;4.00;4.00;;;;;23.03;36.39;100908.69;2095710;27;47480;-63
2022/07/28 04:12:51;;;;;;;;;4.25;3.75;;;;;23.03;36.44;100904.16;2111032;27;47981;-62
2022/07/28 04:13:52;;;;;;;;;3.20;3.20;;;;;23.03;36.11;100908.69;2112281;27;47797;-62
2022/07/28 04:14:52;;;;;;;;;1.00;1.00;;;;;23.01;36.06;100906.09;2105039;27;47609;-63
2022/07/28 04:15:53;;;;;;;;;5.00;5.00;;;;;23.01;36.48;100911.53;2112655;27;47960;-62
2022/07/28 04:16:53;;;;;;;;;5.75;4.25;;;;;23.00;36.25;100909.78;2112950;27;47310;-63
2022/07/28 04:17:54;;;;;;;;;2.75;2.25;;;;;22.98;36.14;100911.72;2112468;27;47547;-64
2022/07/28 04:18:55;;;;;;;;;3.80;3.80;;;;;22.97;36.07;100906.41;2111802;27;46995;-63
2022/07/28 04:19:55;;;;;;;;;3.00;2.25;;;;;22.94;36.12;100907.50;2113270;27;48281;-63
2022/07/28 04:20:55;;;;;;;;;4.75;4.75;;;;;22.94;36.47;100907.50;2113021;27;47207;-63
2022/07/28 04:21:56;;;;;;;;;3.00;3.00;;;;;22.93;36.07;100908.47;2112541;27;47574;-65
2022/07/28 04:22:56;;;;;;;;;3.25;3.25;;;;;22.92;36.54;100906.75;2112803;27;47565;-62
2022/07/28 04:23:57;;;;;;;;;4.00;4.00;;;;;22.93;36.42;100902.19;2111986;27;47479;-65
2022/07/28 04:24:57;;;;;;;;;3.25;3.25;;;;;22.90;36.52;100901.44;2112642;27;47560;-63
2022/07/28 04:25:57;;;;;;;;;3.00;3.00;;;;;22.90;36.11;100901.44;2114273;27;47853;-63
2022/07/28 04:26:58;;;;;;;;;3.00;3.00;;;;;22.88;36.16;100906.09;2112978;27;47959;-63
2022/07/28 04:27:58;;;;;;;;;4.00;4.00;;;;;22.86;36.41;100905.31;2112736;27;47485;-62
2022/07/28 04:28:59;;;;;;;;;4.25;4.25;;;;;22.86;36.39;100907.16;2113077;27;47385;-62
2022/07/28 04:29:59;;;;;;;;;4.25;4.00;;;;;22.85;36.54;100900.00;2112140;27;47868;-65
2022/07/28 04:30:59;;;;;;;;;2.00;2.00;;;;;22.86;36.54;100904.44;2113249;27;47562;-64
2022/07/28 04:32:00;;;;;;;;;4.00;4.00;;;;;22.85;36.55;100900.88;2110505;27;47646;-63
2022/07/28 04:33:00;;;;;;;;;4.50;4.00;;;;;22.85;36.69;100897.31;2104818;28;47806;-62
2022/07/28 04:34:01;;;;;;;;;3.75;3.75;;;;;22.85;36.76;100900.88;2104795;28;47706;-62
2022/07/28 04:35:01;;;;;;;;;3.50;3.50;;;;;22.85;36.34;100900.88;2084523;28;46213;-63
2022/07/28 04:36:02;;;;;;;;;2.00;2.00;;;;;22.85;36.42;100898.19;2071236;28;47339;-65
2022/07/28 04:37:03;;;;;;;;;3.60;3.60;;;;;22.85;36.56;100898.19;2078980;28;47611;-63
2022/07/28 04:38:03;;;;;;;;;4.25;4.25;;;;;22.86;36.68;100899.03;2087927;28;47485;-63
2022/07/28 04:39:04;;;;;;;;;4.50;3.00;;;;;22.85;36.58;100900.00;2088590;28;47489;-62
2022/07/28 04:40:06;;;;;;;;;2.75;2.75;;;;;22.86;36.95;100899.03;2090096;28;47761;-63
2022/07/28 04:41:06;;;;;;;;;3.80;3.80;;;;;22.86;36.59;100899.91;2088061;28;48095;-63
2022/07/28 04:42:06;;;;;;;;;4.00;2.75;;;;;22.86;36.80;100902.59;2096124;28;47435;-64
2022/07/28 04:43:09;;;;;;;;;4.00;3.00;;;;;22.86;36.69;100897.19;2094991;28;47757;-64
2022/07/28 04:44:10;;;;;;;;;2.00;2.00;;;;;22.87;37.08;100901.66;2096035;28;47557;-62
2022/07/28 04:45:11;;;;;;;;;3.40;3.40;;;;;22.87;37.00;100901.66;2094965;28;48765;-63
2022/07/28 04:46:11;;;;;;;;;3.25;3.00;;;;;22.85;36.82;100892.75;2095404;28;47157;-62
2022/07/28 04:47:12;;;;;;;;;5.25;4.25;;;;;22.85;37.02;100898.19;2096735;28;47591;-63
2022/07/28 04:48:13;;;;;;;;;4.00;4.00;;;;;22.85;36.95;100892.75;2095104;28;47014;-63
2022/07/28 04:49:13;;;;;;;;;4.00;4.00;;;;;22.86;36.59;100890.91;2095169;28;47912;-62
2022/07/28 04:50:19;;;;;;;;;3.50;3.25;;;;;22.85;36.81;100894.59;2089850;28;47721;-62
2022/07/28 04:51:21;;;;;;;;;6.60;4.80;;;;;22.86;36.86;100901.75;2086914;28;47435;-63
2022/07/28 04:52:22;;;;;;;;;2.80;2.20;;;;;22.86;36.80;100899.91;2087620;28;47394;-63
2022/07/28 04:53:23;;;;;;;;;4.40;4.00;;;;;22.85;36.73;100900.88;2088338;28;46616;-63
2022/07/28 04:54:24;;;;;;;;;3.00;3.00;;;;;22.84;36.50;100895.56;2087743;28;47795;-63
2022/07/28 04:55:25;;;;;;;;;4.80;4.80;;;;;22.82;36.74;100898.38;2079695;28;47295;-64
2022/07/28 04:56:26;;;;;;;;;3.00;3.00;;;;;22.84;37.03;100901.00;2084262;28;47976;-63